sensor_id;sensor_type;location;lat;lon;timestamp;temperature;humidity
8436;DHT22;4255;48.730;9.156;2022-07-24T00:01:48;23.80;99.90
8436;DHT22;4255;48.730;9.156;2022-07-24T00:04:14;23.80;99.90
8436;DHT22;4255;48.730;9.156;2022-07-24T00:06:40;23.80;99.90
8436;DHT22;4255;48.730;9.156;2022-07-24T00:09:06;23.80;99.90
8436;DHT22;4255;48.730;9.156;2022-07-24T00:11:32;23.90;99.90
8436;DHT22;4255;48.730;9.156;2022-07-24T00:13:58;23.90;99.90
8436;DHT22;4255;48.730;9.156;2022-07-24T00:16:24;23.90;99.90
8436;DHT22;4255;48.730;9.156;2022-07-24T00:18:49;23.80;99.90
8436;DHT22;4255;48.730;9.156;2022-07-24T00:21:15;23.90;99.90
8436;DHT22;4255;48.730;9.156;2022-07-24T00:23:41;23.80;99.90
8436;DHT22;4255;48.730;9.156;2022-07-24T00:26:09;23.80;99.90
8436;DHT22;4255;48.730;9.156;2022-07-24T00:28:34;23.80;99.90
8436;DHT22;4255;48.730;9.156;2022-07-24T00:31:00;23.70;99.90
8436;DHT22;4255;48.730;9.156;2022-07-24T00:33:26;23.60;99.90
8436;DHT22;4255;48.730;9.156;2022-07-24T00:35:51;23.60;99.90
8436;DHT22;4255;48.730;9.156;2022-07-24T00:38:17;23.50;99.90
8436;DHT22;4255;48.730;9.156;2022-07-24T00:40:43;23.50;99.90
8436;DHT22;4255;48.730;9.156;2022-07-24T00:43:08;23.40;99.90
8436;DHT22;4255;48.730;9.156;2022-07-24T00:45:34;23.30;99.90
8436;DHT22;4255;48.730;9.156;2022-07-24T00:48:00;23.20;99.90
8436;DHT22;4255;48.730;9.156;2022-07-24T00:50:26;23.20;99.90
8436;DHT22;4255;48.730;9.156;2022-07-24T00:52:52;23.20;99.90
8436;DHT22;4255;48.730;9.156;2022-07-24T00:55:18;23.10;99.90
8436;DHT22;4255;48.730;9.156;2022-07-24T00:57:45;23.20;99.90
8436;DHT22;4255;48.730;9.156;2022-07-24T01:00:16;23.10;99.90
8436;DHT22;4255;48.730;9.156;2022-07-24T01:02:42;23.10;99.90
8436;DHT22;4255;48.730;9.156;2022-07-24T01:05:09;23.10;99.90
8436;DHT22;4255;48.730;9.156;2022-07-24T01:07:36;23.10;99.90
8436;DHT22;4255;48.730;9.156;2022-07-24T01:10:03;23.10;99.90
8436;DHT22;4255;48.730;9.156;2022-07-24T01:12:31;23.10;99.90
8436;DHT22;4255;48.730;9.156;2022-07-24T01:14:57;23.10;99.90
8436;DHT22;4255;48.730;9.156;2022-07-24T01:17:23;23.20;99.90
8436;DHT22;4255;48.730;9.156;2022-07-24T01:19:49;23.20;99.90
8436;DHT22;4255;48.730;9.156;2022-07-24T01:22:15;23.20;99.90
8436;DHT22;4255;48.730;9.156;2022-07-24T01:24:41;23.20;99.90
8436;DHT22;4255;48.730;9.156;2022-07-24T01:27:07;23.10;99.90
8436;DHT22;4255;48.730;9.156;2022-07-24T01:29:33;23.00;99.90
8436;DHT22;4255;48.730;9.156;2022-07-24T01:31:59;23.00;99.90
8436;DHT22;4255;48.730;9.156;2022-07-24T01:34:25;22.90;99.90
8436;DHT22;4255;48.730;9.156;2022-07-24T01:36:50;22.80;99.90
8436;DHT22;4255;48.730;9.156;2022-07-24T01:39:16;22.80;99.90
8436;DHT22;4255;48.730;9.156;2022-07-24T01:41:42;22.80;99.90
8436;DHT22;4255;48.730;9.156;2022-07-24T01:44:07;22.80;99.90
8436;DHT22;4255;48.730;9.156;2022-07-24T01:46:33;22.70;99.90
8436;DHT22;4255;48.730;9.156;2022-07-24T01:48:59;22.70;99.90
8436;DHT22;4255;48.730;9.156;2022-07-24T01:51:24;22.70;99.90
8436;DHT22;4255;48.730;9.156;2022-07-24T01:53:50;22.70;99.90
8436;DHT22;4255;48.730;9.156;2022-07-24T01:56:16;22.70;99.90
8436;DHT22;4255;48.730;9.156;2022-07-24T01:58:41;22.80;99.90
8436;DHT22;4255;48.730;9.156;2022-07-24T02:01:07;22.90;99.90
8436;DHT22;4255;48.730;9.156;2022-07-24T02:03:33;22.90;99.90
8436;DHT22;4255;48.730;9.156;2022-07-24T02:05:58;22.90;99.90
8436;DHT22;4255;48.730;9.156;2022-07-24T02:08:24;22.90;99.90
8436;DHT22;4255;48.730;9.156;2022-07-24T02:10:50;22.80;99.90
8436;DHT22;4255;48.730;9.156;2022-07-24T02:13:15;22.60;99.90
8436;DHT22;4255;48.730;9.156;2022-07-24T02:15:41;22.30;99.90
8436;DHT22;4255;48.730;9.156;2022-07-24T02:18:07;22.20;99.90
8436;DHT22;4255;48.730;9.156;2022-07-24T02:20:32;22.20;99.90
8436;DHT22;4255;48.730;9.156;2022-07-24T02:22:58;22.10;99.90
8436;DHT22;4255;48.730;9.156;2022-07-24T02:25:24;22.10;99.90
8436;DHT22;4255;48.730;9.156;2022-07-24T02:27:50;22.10;99.90
8436;DHT22;4255;48.730;9.156;2022-07-24T02:30:19;22.10;99.90
8436;DHT22;4255;48.730;9.156;2022-07-24T02:32:45;22.10;99.90
8436;DHT22;4255;48.730;9.156;2022-07-24T02:35:11;22.00;99.90
8436;DHT22;4255;48.730;9.156;2022-07-24T02:37:38;21.80;99.90
8436;DHT22;4255;48.730;9.156;2022-07-24T02:40:05;21.80;99.90
8436;DHT22;4255;48.730;9.156;2022-07-24T02:42:31;21.80;99.90
8436;DHT22;4255;48.730;9.156;2022-07-24T02:44:57;21.80;99.90
8436;DHT22;4255;48.730;9.156;2022-07-24T02:47:23;21.80;99.90
8436;DHT22;4255;48.730;9.156;2022-07-24T02:49:48;21.70;99.90
8436;DHT22;4255;48.730;9.156;2022-07-24T02:52:14;21.60;99.90
8436;DHT22;4255;48.730;9.156;2022-07-24T02:54:40;21.60;99.90
8436;DHT22;4255;48.730;9.156;2022-07-24T02:57:05;21.60;99.90
8436;DHT22;4255;48.730;9.156;2022-07-24T02:59:31;21.70;99.90
8436;DHT22;4255;48.730;9.156;2022-07-24T03:01:57;21.70;99.90
8436;DHT22;4255;48.730;9.156;2022-07-24T03:04:23;21.70;99.90
8436;DHT22;4255;48.730;9.156;2022-07-24T03:06:49;21.70;99.90
8436;DHT22;4255;48.730;9.156;2022-07-24T03:09:14;21.80;99.90
8436;DHT22;4255;48.730;9.156;2022-07-24T03:11:40;21.70;99.90
8436;DHT22;4255;48.730;9.156;2022-07-24T03:14:06;21.70;99.90
8436;DHT22;4255;48.730;9.156;2022-07-24T03:16:32;21.60;99.90
8436;DHT22;4255;48.730;9.156;2022-07-24T03:18:57;21.60;99.90
8436;DHT22;4255;48.730;9.156;2022-07-24T03:21:23;21.60;99.90
8436;DHT22;4255;48.730;9.156;2022-07-24T03:23:49;21.60;99.90
8436;DHT22;4255;48.730;9.156;2022-07-24T03:26:15;21.60;99.90
8436;DHT22;4255;48.730;9.156;2022-07-24T03:28:41;21.60;99.90
8436;DHT22;4255;48.730;9.156;2022-07-24T03:31:06;21.60;99.90
8436;DHT22;4255;48.730;9.156;2022-07-24T03:33:32;21.60;99.90
8436;DHT22;4255;48.730;9.156;2022-07-24T03:35:59;21.50;99.90
8436;DHT22;4255;48.730;9.156;2022-07-24T03:38:25;21.50;99.90
8436;DHT22;4255;48.730;9.156;2022-07-24T03:40:51;21.40;99.90
8436;DHT22;4255;48.730;9.156;2022-07-24T03:43:17;21.50;99.90
8436;DHT22;4255;48.730;9.156;2022-07-24T03:45:43;21.40;99.90
8436;DHT22;4255;48.730;9.156;2022-07-24T03:48:09;21.40;99.90
8436;DHT22;4255;48.730;9.156;2022-07-24T03:50:34;21.40;99.90
8436;DHT22;4255;48.730;9.156;2022-07-24T03:53:00;21.40;99.90
8436;DHT22;4255;48.730;9.156;2022-07-24T03:55:26;21.50;99.90
8436;DHT22;4255;48.730;9.156;2022-07-24T03:57:51;21.40;99.90
8436;DHT22;4255;48.730;9.156;2022-07-24T04:00:17;21.50;99.90
8436;DHT22;4255;48.730;9.156;2022-07-24T04:02:43;21.50;99.90
8436;DHT22;4255;48.730;9.156;2022-07-24T04:05:09;21.50;99.90
8436;DHT22;4255;48.730;9.156;2022-07-24T04:07:38;21.40;99.90
8436;DHT22;4255;48.730;9.156;2022-07-24T04:10:05;21.40;99.90
8436;DHT22;4255;48.730;9.156;2022-07-24T04:12:32;21.20;99.90
8436;DHT22;4255;48.730;9.156;2022-07-24T04:14:57;21.30;99.90
8436;DHT22;4255;48.730;9.156;2022-07-24T04:17:23;21.40;99.90
8436;DHT22;4255;48.730;9.156;2022-07-24T04:19:49;21.50;99.90
8436;DHT22;4255;48.730;9.156;2022-07-24T04:22:15;21.50;99.90
8436;DHT22;4255;48.730;9.156;2022-07-24T04:24:40;21.50;99.90
8436;DHT22;4255;48.730;9.156;2022-07-24T04:27:06;21.60;99.90
8436;DHT22;4255;48.730;9.156;2022-07-24T04:29:32;21.70;99.90
8436;DHT22;4255;48.730;9.156;2022-07-24T04:31:58;21.70;99.90
8436;DHT22;4255;48.730;9.156;2022-07-24T04:34:24;21.80;99.90
8436;DHT22;4255;48.730;9.156;2022-07-24T04:36:49;21.90;99.90
8436;DHT22;4255;48.730;9.156;2022-07-24T04:39:15;22.00;99.90
8436;DHT22;4255;48.730;9.156;2022-07-24T04:41:41;22.10;99.90
8436;DHT22;4255;48.730;9.156;2022-07-24T04:44:07;22.20;99.90
8436;DHT22;4255;48.730;9.156;2022-07-24T04:46:33;22.30;99.90
8436;DHT22;4255;48.730;9.156;2022-07-24T04:48:58;22.30;99.90
8436;DHT22;4255;48.730;9.156;2022-07-24T04:51:24;22.30;99.90
8436;DHT22;4255;48.730;9.156;2022-07-24T04:53:49;22.40;99.90
8436;DHT22;4255;48.730;9.156;2022-07-24T04:56:19;22.50;99.90
8436;DHT22;4255;48.730;9.156;2022-07-24T04:58:44;22.60;99.90
8436;DHT22;4255;48.730;9.156;2022-07-24T05:01:10;22.80;99.90
8436;DHT22;4255;48.730;9.156;2022-07-24T05:03:36;22.90;99.90
8436;DHT22;4255;48.730;9.156;2022-07-24T05:06:02;23.00;99.90
8436;DHT22;4255;48.730;9.156;2022-07-24T05:08:27;23.00;99.90
8436;DHT22;4255;48.730;9.156;2022-07-24T05:10:53;23.10;99.90
8436;DHT22;4255;48.730;9.156;2022-07-24T05:13:18;23.00;99.90
8436;DHT22;4255;48.730;9.156;2022-07-24T05:15:44;23.10;99.90
8436;DHT22;4255;48.730;9.156;2022-07-24T05:18:10;23.00;99.90
8436;DHT22;4255;48.730;9.156;2022-07-24T05:20:35;22.90;99.90
8436;DHT22;4255;48.730;9.156;2022-07-24T05:23:01;22.90;99.90
8436;DHT22;4255;48.730;9.156;2022-07-24T05:25:27;23.00;99.90
8436;DHT22;4255;48.730;9.156;2022-07-24T05:27:53;23.20;99.90
8436;DHT22;4255;48.730;9.156;2022-07-24T05:30:18;23.30;99.90
8436;DHT22;4255;48.730;9.156;2022-07-24T05:32:44;23.30;99.90
8436;DHT22;4255;48.730;9.156;2022-07-24T05:35:09;23.30;99.90
8436;DHT22;4255;48.730;9.156;2022-07-24T05:37:35;23.40;99.90
8436;DHT22;4255;48.730;9.156;2022-07-24T05:40:01;23.60;99.90
8436;DHT22;4255;48.730;9.156;2022-07-24T05:42:26;23.60;99.90
8436;DHT22;4255;48.730;9.156;2022-07-24T05:44:52;23.70;99.90
8436;DHT22;4255;48.730;9.156;2022-07-24T05:47:18;23.80;99.90
8436;DHT22;4255;48.730;9.156;2022-07-24T05:49:43;24.00;99.90
8436;DHT22;4255;48.730;9.156;2022-07-24T05:52:09;24.10;99.90
8436;DHT22;4255;48.730;9.156;2022-07-24T05:54:35;24.20;99.90
8436;DHT22;4255;48.730;9.156;2022-07-24T05:57:00;24.30;99.90
8436;DHT22;4255;48.730;9.156;2022-07-24T05:59:26;24.50;99.90
8436;DHT22;4255;48.730;9.156;2022-07-24T06:01:52;24.50;99.90
8436;DHT22;4255;48.730;9.156;2022-07-24T06:04:17;24.60;99.90
8436;DHT22;4255;48.730;9.156;2022-07-24T06:06:43;24.60;99.90
8436;DHT22;4255;48.730;9.156;2022-07-24T06:09:09;24.80;99.90
8436;DHT22;4255;48.730;9.156;2022-07-24T06:11:34;25.00;99.90
8436;DHT22;4255;48.730;9.156;2022-07-24T06:14:00;25.10;99.90
8436;DHT22;4255;48.730;9.156;2022-07-24T06:16:25;25.10;99.90
8436;DHT22;4255;48.730;9.156;2022-07-24T06:18:51;25.10;99.90
8436;DHT22;4255;48.730;9.156;2022-07-24T06:21:17;25.30;99.90
8436;DHT22;4255;48.730;9.156;2022-07-24T06:23:42;25.40;99.90
8436;DHT22;4255;48.730;9.156;2022-07-24T06:26:08;25.60;99.90
8436;DHT22;4255;48.730;9.156;2022-07-24T06:28:34;25.60;99.90
8436;DHT22;4255;48.730;9.156;2022-07-24T06:30:59;25.80;99.90
8436;DHT22;4255;48.730;9.156;2022-07-24T06:33:25;25.90;99.90
8436;DHT22;4255;48.730;9.156;2022-07-24T06:35:51;25.90;99.90
8436;DHT22;4255;48.730;9.156;2022-07-24T06:38:16;26.10;99.90
8436;DHT22;4255;48.730;9.156;2022-07-24T06:40:42;26.20;99.90
8436;DHT22;4255;48.730;9.156;2022-07-24T06:43:08;26.40;99.90
8436;DHT22;4255;48.730;9.156;2022-07-24T06:45:34;26.50;99.90
8436;DHT22;4255;48.730;9.156;2022-07-24T06:48:02;26.50;99.90
8436;DHT22;4255;48.730;9.156;2022-07-24T06:50:28;26.60;99.90
8436;DHT22;4255;48.730;9.156;2022-07-24T06:52:54;26.80;99.90
8436;DHT22;4255;48.730;9.156;2022-07-24T06:55:20;27.10;99.90
8436;DHT22;4255;48.730;9.156;2022-07-24T06:57:46;27.00;99.90
8436;DHT22;4255;48.730;9.156;2022-07-24T07:00:12;27.10;99.90
8436;DHT22;4255;48.730;9.156;2022-07-24T07:02:38;27.10;99.90
8436;DHT22;4255;48.730;9.156;2022-07-24T07:05:05;27.30;99.90
8436;DHT22;4255;48.730;9.156;2022-07-24T07:07:31;27.20;99.90
8436;DHT22;4255;48.730;9.156;2022-07-24T07:09:57;27.20;99.90
8436;DHT22;4255;48.730;9.156;2022-07-24T07:12:23;27.30;99.90
8436;DHT22;4255;48.730;9.156;2022-07-24T07:14:49;27.50;99.90
8436;DHT22;4255;48.730;9.156;2022-07-24T07:17:14;27.30;99.90
8436;DHT22;4255;48.730;9.156;2022-07-24T07:19:42;27.30;99.90
8436;DHT22;4255;48.730;9.156;2022-07-24T07:22:09;27.40;99.90
8436;DHT22;4255;48.730;9.156;2022-07-24T07:24:34;27.40;99.90
8436;DHT22;4255;48.730;9.156;2022-07-24T07:27:00;27.30;99.90
8436;DHT22;4255;48.730;9.156;2022-07-24T07:29:26;27.10;99.90
8436;DHT22;4255;48.730;9.156;2022-07-24T07:31:51;27.20;99.90
8436;DHT22;4255;48.730;9.156;2022-07-24T07:34:17;27.30;99.90
8436;DHT22;4255;48.730;9.156;2022-07-24T07:36:43;27.50;99.90
8436;DHT22;4255;48.730;9.156;2022-07-24T07:39:09;27.60;99.90
8436;DHT22;4255;48.730;9.156;2022-07-24T07:41:35;27.70;99.90
8436;DHT22;4255;48.730;9.156;2022-07-24T07:44:00;27.90;99.90
8436;DHT22;4255;48.730;9.156;2022-07-24T07:46:26;27.90;99.90
8436;DHT22;4255;48.730;9.156;2022-07-24T07:48:53;28.20;99.90
8436;DHT22;4255;48.730;9.156;2022-07-24T07:51:19;28.30;99.90
8436;DHT22;4255;48.730;9.156;2022-07-24T07:53:45;28.50;99.90
8436;DHT22;4255;48.730;9.156;2022-07-24T07:56:11;28.70;99.90
8436;DHT22;4255;48.730;9.156;2022-07-24T07:58:36;28.70;99.90
8436;DHT22;4255;48.730;9.156;2022-07-24T08:01:02;28.90;99.90
8436;DHT22;4255;48.730;9.156;2022-07-24T08:03:28;28.80;99.90
8436;DHT22;4255;48.730;9.156;2022-07-24T08:05:54;28.80;99.90
8436;DHT22;4255;48.730;9.156;2022-07-24T08:08:20;28.80;99.90
8436;DHT22;4255;48.730;9.156;2022-07-24T08:10:45;28.80;99.90
8436;DHT22;4255;48.730;9.156;2022-07-24T08:13:11;28.80;99.90
8436;DHT22;4255;48.730;9.156;2022-07-24T08:15:38;28.90;99.90
8436;DHT22;4255;48.730;9.156;2022-07-24T08:18:04;29.20;99.90
8436;DHT22;4255;48.730;9.156;2022-07-24T08:20:30;29.30;99.90
8436;DHT22;4255;48.730;9.156;2022-07-24T08:22:56;29.40;99.90
8436;DHT22;4255;48.730;9.156;2022-07-24T08:25:21;29.40;99.90
8436;DHT22;4255;48.730;9.156;2022-07-24T08:27:47;29.40;99.90
8436;DHT22;4255;48.730;9.156;2022-07-24T08:30:14;29.60;99.90
8436;DHT22;4255;48.730;9.156;2022-07-24T08:32:40;29.80;99.90
8436;DHT22;4255;48.730;9.156;2022-07-24T08:35:06;30.00;99.90
8436;DHT22;4255;48.730;9.156;2022-07-24T08:37:42;30.00;99.90
8436;DHT22;4255;48.730;9.156;2022-07-24T08:40:09;29.70;99.90
8436;DHT22;4255;48.730;9.156;2022-07-24T08:42:36;29.60;99.90
8436;DHT22;4255;48.730;9.156;2022-07-24T08:45:04;29.80;99.90
8436;DHT22;4255;48.730;9.156;2022-07-24T08:47:30;30.00;99.90
8436;DHT22;4255;48.730;9.156;2022-07-24T08:49:58;30.20;99.90
8436;DHT22;4255;48.730;9.156;2022-07-24T08:52:25;30.40;99.90
8436;DHT22;4255;48.730;9.156;2022-07-24T08:54:52;30.50;99.90
8436;DHT22;4255;48.730;9.156;2022-07-24T08:57:18;30.60;99.90
8436;DHT22;4255;48.730;9.156;2022-07-24T08:59:44;30.80;99.90
8436;DHT22;4255;48.730;9.156;2022-07-24T09:02:10;30.90;99.90
8436;DHT22;4255;48.730;9.156;2022-07-24T09:04:42;31.10;99.90
8436;DHT22;4255;48.730;9.156;2022-07-24T09:07:19;31.10;99.90
8436;DHT22;4255;48.730;9.156;2022-07-24T09:10:20;31.40;99.90
8436;DHT22;4255;48.730;9.156;2022-07-24T09:12:47;31.10;99.20
8436;DHT22;4255;48.730;9.156;2022-07-24T09:15:23;30.70;99.50
8436;DHT22;4255;48.730;9.156;2022-07-24T09:17:54;30.80;99.30
8436;DHT22;4255;48.730;9.156;2022-07-24T09:20:23;30.90;99.90
8436;DHT22;4255;48.730;9.156;2022-07-24T09:22:50;31.30;99.90
8436;DHT22;4255;48.730;9.156;2022-07-24T09:25:21;31.40;99.80
8436;DHT22;4255;48.730;9.156;2022-07-24T09:27:56;31.70;99.90
8436;DHT22;4255;48.730;9.156;2022-07-24T09:33:07;31.50;98.10
8436;DHT22;4255;48.730;9.156;2022-07-24T09:35:40;31.70;97.10
8436;DHT22;4255;48.730;9.156;2022-07-24T09:38:10;32.00;98.20
8436;DHT22;4255;48.730;9.156;2022-07-24T09:40:39;32.40;97.00
8436;DHT22;4255;48.730;9.156;2022-07-24T09:43:32;32.30;94.60
8436;DHT22;4255;48.730;9.156;2022-07-24T09:46:08;32.30;92.70
8436;DHT22;4255;48.730;9.156;2022-07-24T09:48:39;32.30;93.90
8436;DHT22;4255;48.730;9.156;2022-07-24T09:51:11;32.10;92.40
8436;DHT22;4255;48.730;9.156;2022-07-24T09:53:38;31.80;93.50
8436;DHT22;4255;48.730;9.156;2022-07-24T09:56:06;31.60;92.70
8436;DHT22;4255;48.730;9.156;2022-07-24T09:58:34;31.30;93.30
8436;DHT22;4255;48.730;9.156;2022-07-24T10:01:01;31.00;93.50
8436;DHT22;4255;48.730;9.156;2022-07-24T10:03:30;30.60;94.10
8436;DHT22;4255;48.730;9.156;2022-07-24T10:06:05;30.50;95.10
8436;DHT22;4255;48.730;9.156;2022-07-24T10:08:32;30.30;95.00
8436;DHT22;4255;48.730;9.156;2022-07-24T10:10:58;30.60;95.40
8436;DHT22;4255;48.730;9.156;2022-07-24T10:13:25;30.70;95.40
8436;DHT22;4255;48.730;9.156;2022-07-24T10:21:25;30.50;94.70
8436;DHT22;4255;48.730;9.156;2022-07-24T10:26:42;30.30;95.70
8436;DHT22;4255;48.730;9.156;2022-07-24T10:29:14;30.20;95.40
8436;DHT22;4255;48.730;9.156;2022-07-24T10:31:41;30.00;95.90
8436;DHT22;4255;48.730;9.156;2022-07-24T10:42:15;29.50;95.80
8436;DHT22;4255;48.730;9.156;2022-07-24T10:44:41;29.80;95.80
8436;DHT22;4255;48.730;9.156;2022-07-24T10:47:11;29.70;94.90
8436;DHT22;4255;48.730;9.156;2022-07-24T10:49:45;30.10;94.90
8436;DHT22;4255;48.730;9.156;2022-07-24T10:52:21;30.50;95.90
8436;DHT22;4255;48.730;9.156;2022-07-24T10:55:18;30.90;94.00
8436;DHT22;4255;48.730;9.156;2022-07-24T10:57:48;31.50;94.70
8436;DHT22;4255;48.730;9.156;2022-07-24T11:00:21;32.10;93.00
8436;DHT22;4255;48.730;9.156;2022-07-24T11:03:20;32.60;91.50
8436;DHT22;4255;48.730;9.156;2022-07-24T11:06:05;32.50;91.00
8436;DHT22;4255;48.730;9.156;2022-07-24T11:08:36;32.60;89.80
8436;DHT22;4255;48.730;9.156;2022-07-24T11:11:21;32.60;90.00
8436;DHT22;4255;48.730;9.156;2022-07-24T11:13:53;32.90;89.60
8436;DHT22;4255;48.730;9.156;2022-07-24T11:16:21;33.10;85.80
8436;DHT22;4255;48.730;9.156;2022-07-24T11:21:31;33.70;90.20
8436;DHT22;4255;48.730;9.156;2022-07-24T11:29:19;33.40;87.00
8436;DHT22;4255;48.730;9.156;2022-07-24T11:31:56;33.50;88.40
8436;DHT22;4255;48.730;9.156;2022-07-24T11:34:22;33.30;86.10
8436;DHT22;4255;48.730;9.156;2022-07-24T11:36:50;33.20;86.00
8436;DHT22;4255;48.730;9.156;2022-07-24T11:39:31;33.20;85.00
8436;DHT22;4255;48.730;9.156;2022-07-24T11:42:00;32.90;83.70
8436;DHT22;4255;48.730;9.156;2022-07-24T11:44:38;32.50;85.90
8436;DHT22;4255;48.730;9.156;2022-07-24T11:47:26;32.40;86.10
8436;DHT22;4255;48.730;9.156;2022-07-24T11:49:54;32.00;85.40
8436;DHT22;4255;48.730;9.156;2022-07-24T11:52:40;32.00;86.00
8436;DHT22;4255;48.730;9.156;2022-07-24T11:57:39;31.30;86.20
8436;DHT22;4255;48.730;9.156;2022-07-24T12:00:08;31.30;89.30
8436;DHT22;4255;48.730;9.156;2022-07-24T12:02:36;31.50;89.80
8436;DHT22;4255;48.730;9.156;2022-07-24T12:05:02;31.70;87.60
8436;DHT22;4255;48.730;9.156;2022-07-24T12:07:27;32.00;88.10
8436;DHT22;4255;48.730;9.156;2022-07-24T12:09:59;32.30;87.60
8436;DHT22;4255;48.730;9.156;2022-07-24T12:12:30;32.60;84.70
8436;DHT22;4255;48.730;9.156;2022-07-24T12:15:06;32.50;83.50
8436;DHT22;4255;48.730;9.156;2022-07-24T12:17:34;32.80;86.40
8436;DHT22;4255;48.730;9.156;2022-07-24T12:20:02;33.10;82.70
8436;DHT22;4255;48.730;9.156;2022-07-24T12:22:31;32.90;82.50
8436;DHT22;4255;48.730;9.156;2022-07-24T12:24:57;32.90;82.80
8436;DHT22;4255;48.730;9.156;2022-07-24T12:27:39;32.10;81.80
8436;DHT22;4255;48.730;9.156;2022-07-24T12:33:07;31.90;84.30
8436;DHT22;4255;48.730;9.156;2022-07-24T12:35:55;32.40;83.70
8436;DHT22;4255;48.730;9.156;2022-07-24T12:38:30;32.90;81.00
8436;DHT22;4255;48.730;9.156;2022-07-24T12:46:22;33.10;77.60
8436;DHT22;4255;48.730;9.156;2022-07-24T12:49:02;33.10;76.80
8436;DHT22;4255;48.730;9.156;2022-07-24T12:51:58;33.10;76.20
8436;DHT22;4255;48.730;9.156;2022-07-24T12:54:30;33.30;76.70
8436;DHT22;4255;48.730;9.156;2022-07-24T12:57:01;33.20;76.80
8436;DHT22;4255;48.730;9.156;2022-07-24T12:59:35;33.30;78.20
8436;DHT22;4255;48.730;9.156;2022-07-24T13:02:06;33.70;78.90
8436;DHT22;4255;48.730;9.156;2022-07-24T13:04:33;34.00;73.20
8436;DHT22;4255;48.730;9.156;2022-07-24T13:07:07;34.10;67.20
8436;DHT22;4255;48.730;9.156;2022-07-24T13:09:34;34.20;71.20
8436;DHT22;4255;48.730;9.156;2022-07-24T13:12:00;34.40;72.60
8436;DHT22;4255;48.730;9.156;2022-07-24T13:14:26;34.60;72.60
8436;DHT22;4255;48.730;9.156;2022-07-24T13:16:54;34.50;72.70
8436;DHT22;4255;48.730;9.156;2022-07-24T13:19:21;34.40;71.80
8436;DHT22;4255;48.730;9.156;2022-07-24T13:21:47;34.50;73.00
8436;DHT22;4255;48.730;9.156;2022-07-24T13:24:15;34.50;71.90
8436;DHT22;4255;48.730;9.156;2022-07-24T13:26:42;34.30;70.80
8436;DHT22;4255;48.730;9.156;2022-07-24T13:29:09;34.40;71.10
8436;DHT22;4255;48.730;9.156;2022-07-24T13:31:35;34.20;67.70
8436;DHT22;4255;48.730;9.156;2022-07-24T13:34:01;34.20;68.60
8436;DHT22;4255;48.730;9.156;2022-07-24T13:36:27;33.90;65.50
8436;DHT22;4255;48.730;9.156;2022-07-24T13:38:53;33.90;66.70
8436;DHT22;4255;48.730;9.156;2022-07-24T13:41:18;33.90;67.80
8436;DHT22;4255;48.730;9.156;2022-07-24T13:43:47;33.70;69.00
8436;DHT22;4255;48.730;9.156;2022-07-24T13:46:14;33.60;66.30
8436;DHT22;4255;48.730;9.156;2022-07-24T13:48:39;33.80;67.10
8436;DHT22;4255;48.730;9.156;2022-07-24T13:51:05;33.90;66.50
8436;DHT22;4255;48.730;9.156;2022-07-24T13:53:31;34.10;65.10
8436;DHT22;4255;48.730;9.156;2022-07-24T13:55:57;34.00;65.10
8436;DHT22;4255;48.730;9.156;2022-07-24T13:58:22;33.90;65.80
8436;DHT22;4255;48.730;9.156;2022-07-24T14:00:48;33.70;64.90
8436;DHT22;4255;48.730;9.156;2022-07-24T14:03:14;33.60;65.20
8436;DHT22;4255;48.730;9.156;2022-07-24T14:05:40;33.50;64.70
8436;DHT22;4255;48.730;9.156;2022-07-24T14:08:07;33.80;64.60
8436;DHT22;4255;48.730;9.156;2022-07-24T14:10:33;34.00;64.60
8436;DHT22;4255;48.730;9.156;2022-07-24T14:12:59;34.30;63.50
8436;DHT22;4255;48.730;9.156;2022-07-24T14:15:25;34.50;64.40
8436;DHT22;4255;48.730;9.156;2022-07-24T14:17:50;34.50;62.90
8436;DHT22;4255;48.730;9.156;2022-07-24T14:20:16;34.60;63.50
8436;DHT22;4255;48.730;9.156;2022-07-24T14:22:42;34.60;63.90
8436;DHT22;4255;48.730;9.156;2022-07-24T14:25:08;34.70;64.10
8436;DHT22;4255;48.730;9.156;2022-07-24T14:27:35;34.80;63.00
8436;DHT22;4255;48.730;9.156;2022-07-24T14:30:00;34.80;65.00
8436;DHT22;4255;48.730;9.156;2022-07-24T14:32:26;34.90;63.60
8436;DHT22;4255;48.730;9.156;2022-07-24T14:34:52;34.60;62.10
8436;DHT22;4255;48.730;9.156;2022-07-24T14:37:18;34.00;62.30
8436;DHT22;4255;48.730;9.156;2022-07-24T14:39:43;33.60;63.70
8436;DHT22;4255;48.730;9.156;2022-07-24T14:42:09;33.50;66.90
8436;DHT22;4255;48.730;9.156;2022-07-24T14:44:35;33.90;66.10
8436;DHT22;4255;48.730;9.156;2022-07-24T14:47:01;34.20;66.50
8436;DHT22;4255;48.730;9.156;2022-07-24T14:49:30;34.10;64.80
8436;DHT22;4255;48.730;9.156;2022-07-24T14:51:56;34.20;63.00
8436;DHT22;4255;48.730;9.156;2022-07-24T14:54:22;34.10;62.80
8436;DHT22;4255;48.730;9.156;2022-07-24T14:56:47;33.90;63.90
8436;DHT22;4255;48.730;9.156;2022-07-24T14:59:13;34.10;63.70
8436;DHT22;4255;48.730;9.156;2022-07-24T15:01:39;34.30;63.80
8436;DHT22;4255;48.730;9.156;2022-07-24T15:04:05;34.60;62.90
8436;DHT22;4255;48.730;9.156;2022-07-24T15:06:31;34.90;60.70
8436;DHT22;4255;48.730;9.156;2022-07-24T15:08:57;34.90;61.70
8436;DHT22;4255;48.730;9.156;2022-07-24T15:11:22;34.90;59.90
8436;DHT22;4255;48.730;9.156;2022-07-24T15:13:51;35.10;61.10
8436;DHT22;4255;48.730;9.156;2022-07-24T15:16:17;35.10;61.80
8436;DHT22;4255;48.730;9.156;2022-07-24T15:18:43;35.20;62.50
8436;DHT22;4255;48.730;9.156;2022-07-24T15:21:08;35.20;61.30
8436;DHT22;4255;48.730;9.156;2022-07-24T15:23:35;35.10;59.60
8436;DHT22;4255;48.730;9.156;2022-07-24T15:26:01;35.20;60.70
8436;DHT22;4255;48.730;9.156;2022-07-24T15:28:27;35.20;60.70
8436;DHT22;4255;48.730;9.156;2022-07-24T15:30:53;35.40;59.70
8436;DHT22;4255;48.730;9.156;2022-07-24T15:33:20;35.40;57.70
8436;DHT22;4255;48.730;9.156;2022-07-24T15:35:46;35.50;57.80
8436;DHT22;4255;48.730;9.156;2022-07-24T15:38:12;35.30;57.60
8436;DHT22;4255;48.730;9.156;2022-07-24T15:40:39;34.90;57.50
8436;DHT22;4255;48.730;9.156;2022-07-24T15:43:04;34.40;58.30
8436;DHT22;4255;48.730;9.156;2022-07-24T15:45:30;34.00;59.10
8436;DHT22;4255;48.730;9.156;2022-07-24T15:47:56;33.60;59.20
8436;DHT22;4255;48.730;9.156;2022-07-24T15:50:22;33.50;59.70
8436;DHT22;4255;48.730;9.156;2022-07-24T15:52:47;33.50;60.60
8436;DHT22;4255;48.730;9.156;2022-07-24T15:55:13;33.90;59.70
8436;DHT22;4255;48.730;9.156;2022-07-24T15:57:39;34.30;59.50
8436;DHT22;4255;48.730;9.156;2022-07-24T16:00:05;34.60;59.10
8436;DHT22;4255;48.730;9.156;2022-07-24T16:02:31;35.00;59.10
8436;DHT22;4255;48.730;9.156;2022-07-24T16:04:57;35.20;59.10
8436;DHT22;4255;48.730;9.156;2022-07-24T16:07:22;35.30;59.30
8436;DHT22;4255;48.730;9.156;2022-07-24T16:09:49;35.00;59.70
8436;DHT22;4255;48.730;9.156;2022-07-24T16:12:15;35.00;60.30
8436;DHT22;4255;48.730;9.156;2022-07-24T16:14:40;35.00;59.60
8436;DHT22;4255;48.730;9.156;2022-07-24T16:17:06;35.20;61.20
8436;DHT22;4255;48.730;9.156;2022-07-24T16:19:33;35.20;59.30
8436;DHT22;4255;48.730;9.156;2022-07-24T16:21:59;35.30;58.50
8436;DHT22;4255;48.730;9.156;2022-07-24T16:24:29;35.40;58.50
8436;DHT22;4255;48.730;9.156;2022-07-24T16:26:55;35.30;58.70
8436;DHT22;4255;48.730;9.156;2022-07-24T16:29:21;35.30;59.30
8436;DHT22;4255;48.730;9.156;2022-07-24T16:31:46;34.90;58.80
8436;DHT22;4255;48.730;9.156;2022-07-24T16:34:13;34.90;60.10
8436;DHT22;4255;48.730;9.156;2022-07-24T16:36:39;34.90;59.60
8436;DHT22;4255;48.730;9.156;2022-07-24T16:39:05;35.10;60.20
8436;DHT22;4255;48.730;9.156;2022-07-24T16:41:31;35.20;58.80